createdAt,value
2019-03-27T00:01:47.922Z,2.75
2019-03-27T00:04:15.233Z,2.70
2019-03-27T00:06:42.516Z,2.69
2019-03-27T00:09:10.161Z,2.78
2019-03-27T00:11:37.541Z,2.86
2019-03-27T00:14:04.825Z,2.93
2019-03-27T00:16:32.081Z,2.96
2019-03-27T00:18:59.398Z,3.01
2019-03-27T00:21:26.763Z,3.03
2019-03-27T00:23:54.122Z,3.07
2019-03-27T00:26:21.523Z,3.12
2019-03-27T00:28:49.147Z,3.20
2019-03-27T00:31:16.304Z,3.29
2019-03-27T00:36:17.775Z,3.48
2019-03-27T00:38:45.491Z,3.59
2019-03-27T00:41:12.763Z,3.70
2019-03-27T00:43:40.087Z,3.76
2019-03-27T00:46:07.462Z,3.84
2019-03-27T00:48:35.011Z,3.98
2019-03-27T00:51:02.287Z,4.04
2019-03-27T00:53:30.025Z,4.12
2019-03-27T00:55:57.282Z,4.11
2019-03-27T00:58:24.549Z,4.12
2019-03-27T01:01:12.226Z,4.16
2019-03-27T01:03:39.694Z,4.18
2019-03-27T01:06:07.056Z,4.28
2019-03-27T01:08:34.508Z,4.28
2019-03-27T01:11:01.861Z,4.28
2019-03-27T01:13:29.402Z,4.31
2019-03-27T01:15:57.113Z,4.36
2019-03-27T01:18:24.756Z,4.41
2019-03-27T01:20:52.012Z,4.41
2019-03-27T01:23:19.844Z,4.44
2019-03-27T01:25:47.143Z,4.56
2019-03-27T01:28:14.400Z,4.56
2019-03-27T01:30:42.142Z,4.62
2019-03-27T01:33:09.682Z,4.67
2019-03-27T01:35:36.936Z,4.70
2019-03-27T01:38:04.303Z,4.70
2019-03-27T01:40:31.568Z,4.79
2019-03-27T01:42:59.374Z,4.81
2019-03-27T01:45:52.196Z,4.93
2019-03-27T01:48:08.413Z,5.14
2019-03-27T01:50:35.660Z,5.16
2019-03-27T01:53:03.056Z,5.14
2019-03-27T01:55:31.047Z,5.11
2019-03-27T01:57:58.327Z,5.23
2019-03-27T02:00:25.713Z,5.29
2019-03-27T02:02:53.318Z,5.35
2019-03-27T02:05:21.351Z,5.20
2019-03-27T02:07:48.684Z,5.25
2019-03-27T02:10:16.111Z,5.22
2019-03-27T02:12:43.740Z,5.28
2019-03-27T02:15:32.251Z,5.17
2019-03-27T02:18:00.003Z,5.09
2019-03-27T02:20:27.376Z,5.13
2019-03-27T02:22:54.939Z,5.24
2019-03-27T02:25:22.187Z,5.13
2019-03-27T02:27:49.450Z,5.11
2019-03-27T02:30:17.161Z,5.07
2019-03-27T02:32:44.382Z,4.95
2019-03-27T02:35:11.632Z,4.84
2019-03-27T02:37:38.950Z,4.80
2019-03-27T02:40:06.325Z,4.73
2019-03-27T02:42:34.014Z,4.64
2019-03-27T02:45:01.404Z,4.54
2019-03-27T02:47:28.703Z,4.50
2019-03-27T02:49:56.339Z,4.44
2019-03-27T02:52:23.653Z,4.39
2019-03-27T02:54:51.016Z,4.38
2019-03-27T02:57:18.767Z,4.39
2019-03-27T02:59:46.262Z,4.46
2019-03-27T03:02:13.898Z,4.55
2019-03-27T03:05:22.052Z,4.53
2019-03-27T03:07:49.730Z,4.57
2019-03-27T03:10:17.401Z,4.63
2019-03-27T03:12:44.713Z,4.59
2019-03-27T03:15:53.104Z,4.69
2019-03-27T03:18:21.000Z,4.73
2019-03-27T03:20:48.367Z,4.68
2019-03-27T03:23:15.625Z,4.64
2019-03-27T03:25:43.368Z,4.67
2019-03-27T03:28:10.730Z,4.63
2019-03-27T03:30:38.106Z,4.67
2019-03-27T03:33:05.524Z,4.80
2019-03-27T03:35:32.874Z,4.92
2019-03-27T03:38:00.427Z,4.88
2019-03-27T03:40:27.818Z,4.87
2019-03-27T03:42:55.066Z,4.92
2019-03-27T03:45:22.329Z,4.95
2019-03-27T03:47:50.118Z,4.88
2019-03-27T03:50:37.545Z,4.83
2019-03-27T03:53:45.697Z,4.82
2019-03-27T03:56:53.723Z,4.85
2019-03-27T04:00:01.875Z,4.89
2019-03-27T04:03:09.915Z,4.94
2019-03-27T04:05:37.381Z,5.06
2019-03-27T04:08:04.774Z,5.08
2019-03-27T04:10:32.039Z,5.14
2019-03-27T04:12:59.488Z,5.17
2019-03-27T04:15:26.874Z,5.23
2019-03-27T04:17:54.129Z,5.23
2019-03-27T04:20:21.512Z,5.31
2019-03-27T04:22:48.780Z,5.35
2019-03-27T04:28:10.920Z,5.37
2019-03-27T04:30:38.212Z,5.51
2019-03-27T04:33:05.784Z,5.51
2019-03-27T04:35:33.097Z,5.52
2019-03-27T04:38:00.732Z,5.54
2019-03-27T04:40:28.000Z,5.57
2019-03-27T04:42:55.552Z,5.54
2019-03-27T04:45:22.805Z,5.61
2019-03-27T04:47:50.066Z,5.62
2019-03-27T04:50:29.762Z,5.66
2019-03-27T04:52:57.589Z,5.68
2019-03-27T04:55:24.955Z,5.71
2019-03-27T04:57:52.331Z,5.72
2019-03-27T05:00:20.083Z,5.76
2019-03-27T05:02:47.953Z,5.78
2019-03-27T05:05:15.658Z,5.86
2019-03-27T05:07:42.932Z,5.83
2019-03-27T05:10:10.523Z,6.10
2019-03-27T05:12:38.802Z,6.06
2019-03-27T05:15:07.358Z,6.18
2019-03-27T05:17:45.314Z,6.22
2019-03-27T05:20:05.028Z,6.24
2019-03-27T05:22:32.512Z,6.28
2019-03-27T05:25:00.393Z,6.21
2019-03-27T05:27:27.897Z,6.31
2019-03-27T05:29:55.197Z,6.29
2019-03-27T05:32:22.751Z,6.24
2019-03-27T05:34:50.431Z,6.23
2019-03-27T05:37:17.703Z,6.22
2019-03-27T05:39:44.962Z,6.34
2019-03-27T05:42:12.389Z,6.34
2019-03-27T05:44:39.717Z,6.33
2019-03-27T05:47:07.363Z,6.34
2019-03-27T05:49:34.777Z,6.27
2019-03-27T05:52:02.102Z,6.32
2019-03-27T05:54:29.753Z,6.36
2019-03-27T05:56:57.433Z,6.35
2019-03-27T05:59:25.180Z,6.41
2019-03-27T06:01:52.638Z,6.35
2019-03-27T06:04:19.967Z,6.36
2019-03-27T06:06:47.519Z,6.38
2019-03-27T06:09:14.788Z,6.38
2019-03-27T06:11:42.640Z,6.41
2019-03-27T06:14:10.407Z,6.45
2019-03-27T06:16:37.672Z,6.51
2019-03-27T06:19:05.161Z,6.50
2019-03-27T06:21:32.734Z,6.47
2019-03-27T06:24:00.116Z,6.49
2019-03-27T06:27:24.993Z,6.56
2019-03-27T06:30:04.132Z,6.49
2019-03-27T06:32:32.216Z,6.52
2019-03-27T06:35:01.401Z,6.47
2019-03-27T06:37:29.041Z,6.55
2019-03-27T06:39:56.583Z,6.53
2019-03-27T06:42:24.473Z,6.52
2019-03-27T06:44:52.849Z,6.58
2019-03-27T06:47:20.488Z,6.53
2019-03-27T06:49:47.748Z,6.51
2019-03-27T06:52:15.224Z,6.55
2019-03-27T06:54:42.526Z,6.57
2019-03-27T06:57:09.791Z,6.64
2019-03-27T06:59:37.382Z,6.69
2019-03-27T07:02:04.815Z,6.80
2019-03-27T07:04:32.475Z,6.93
2019-03-27T07:06:59.841Z,6.99
2019-03-27T07:09:27.161Z,7.06
2019-03-27T07:11:54.430Z,7.09
2019-03-27T07:14:21.705Z,7.05
2019-03-27T07:17:09.014Z,7.19
2019-03-27T07:19:36.281Z,7.15
2019-03-27T07:22:03.556Z,7.35
2019-03-27T07:24:31.115Z,7.28
2019-03-27T07:26:58.380Z,7.44
2019-03-27T07:29:45.175Z,7.48
2019-03-27T07:32:12.726Z,7.56
2019-03-27T07:34:40.182Z,7.52
2019-03-27T07:37:07.653Z,7.52
2019-03-27T07:39:35.567Z,7.63
2019-03-27T07:42:03.640Z,7.60
2019-03-27T07:44:30.969Z,7.65
2019-03-27T07:46:58.243Z,7.73
2019-03-27T07:49:25.614Z,7.77
2019-03-27T07:51:53.106Z,7.88
2019-03-27T07:54:20.820Z,7.99
2019-03-27T07:56:48.090Z,7.87
2019-03-27T07:59:15.515Z,7.96
2019-03-27T08:01:43.058Z,8.13
2019-03-27T08:04:10.328Z,8.14
2019-03-27T08:06:37.714Z,8.11
2019-03-27T08:09:06.890Z,8.28
2019-03-27T08:11:34.537Z,8.19
2019-03-27T08:14:02.434Z,8.20
2019-03-27T08:16:30.492Z,8.21
2019-03-27T08:19:07.406Z,8.17
2019-03-27T08:21:30.984Z,8.14
2019-03-27T08:23:57.254Z,8.13
2019-03-27T08:26:24.821Z,8.18
2019-03-27T08:28:52.649Z,8.30
2019-03-27T08:31:20.300Z,8.46
2019-03-27T08:33:47.563Z,8.65
2019-03-27T08:36:15.274Z,8.71
2019-03-27T08:38:42.867Z,8.86
2019-03-27T08:41:10.302Z,8.64
2019-03-27T08:43:37.671Z,8.63
2019-03-27T08:46:04.963Z,8.59
2019-03-27T08:48:32.265Z,8.79
2019-03-27T08:50:59.682Z,8.82
2019-03-27T08:53:27.436Z,8.90
2019-03-27T08:56:06.958Z,8.94
2019-03-27T08:58:34.338Z,8.92
2019-03-27T09:01:01.713Z,9.18
2019-03-27T09:03:29.031Z,9.11
2019-03-27T09:05:56.758Z,9.33
2019-03-27T09:08:24.625Z,9.27
2019-03-27T09:10:52.420Z,9.31
2019-03-27T09:13:20.064Z,9.46
2019-03-27T09:15:47.417Z,9.40
2019-03-27T09:18:16.872Z,9.61
2019-03-27T09:20:44.494Z,9.84
2019-03-27T09:23:14.091Z,9.75
2019-03-27T09:25:41.514Z,9.64
2019-03-27T09:28:09.480Z,9.48
2019-03-27T09:30:36.985Z,9.55
2019-03-27T09:33:04.424Z,9.63
2019-03-27T09:35:31.814Z,9.51
2019-03-27T09:37:59.087Z,9.57
2019-03-27T09:40:26.394Z,9.77
2019-03-27T09:42:53.927Z,9.82
2019-03-27T09:45:21.222Z,9.81
2019-03-27T09:47:48.533Z,10.14
2019-03-27T09:50:15.797Z,10.32
2019-03-27T09:52:43.070Z,10.16
2019-03-27T09:58:06.135Z,10.09
2019-03-27T10:00:53.409Z,10.14
2019-03-27T10:03:20.724Z,10.04
2019-03-27T10:05:48.010Z,10.08
2019-03-27T10:08:15.270Z,9.78
2019-03-27T10:10:42.703Z,9.79
2019-03-27T10:13:09.957Z,9.91
2019-03-27T10:15:37.528Z,10.09
2019-03-27T10:18:05.126Z,10.05
2019-03-27T10:20:32.496Z,10.06
2019-03-27T10:22:59.758Z,9.88
2019-03-27T10:25:27.457Z,9.89
2019-03-27T10:27:54.834Z,9.91
2019-03-27T10:30:22.106Z,9.66
2019-03-27T10:32:49.483Z,9.86
2019-03-27T10:35:16.801Z,9.78
2019-03-27T10:37:44.151Z,9.78
2019-03-27T10:40:11.593Z,9.72
2019-03-27T10:42:38.953Z,9.59
2019-03-27T10:45:27.767Z,9.71
2019-03-27T10:47:55.610Z,9.66
2019-03-27T10:50:23.209Z,9.80
2019-03-27T10:52:50.633Z,9.81
2019-03-27T10:55:17.897Z,9.74
2019-03-27T10:57:45.257Z,9.76
2019-03-27T11:00:12.850Z,10.01
2019-03-27T11:02:40.353Z,10.29
2019-03-27T11:05:48.584Z,10.04
2019-03-27T11:08:16.194Z,10.20
2019-03-27T11:10:43.459Z,10.22
2019-03-27T11:13:11.627Z,10.00
2019-03-27T11:15:38.922Z,9.93
2019-03-27T11:18:06.194Z,9.97
2019-03-27T11:20:33.607Z,9.99
2019-03-27T11:23:01.582Z,10.09
2019-03-27T11:25:28.854Z,10.08
2019-03-27T11:27:56.159Z,10.01
2019-03-27T11:31:08.488Z,9.85
2019-03-27T11:33:36.274Z,9.83
2019-03-27T11:36:03.960Z,9.99
2019-03-27T11:38:31.220Z,9.90
2019-03-27T11:40:58.701Z,9.93
2019-03-27T11:43:26.387Z,9.91
2019-03-27T11:45:53.696Z,9.72
2019-03-27T11:48:21.289Z,9.71
2019-03-27T11:50:48.929Z,9.60
2019-03-27T11:53:16.321Z,9.72
2019-03-27T11:55:43.636Z,9.61
2019-03-27T11:58:14.705Z,9.55
2019-03-27T12:00:53.834Z,9.58
2019-03-27T12:03:11.195Z,9.82
2019-03-27T12:05:38.445Z,10.00
2019-03-27T12:08:05.710Z,10.13
2019-03-27T12:10:34.013Z,10.50
2019-03-27T12:13:01.568Z,10.96
2019-03-27T12:15:48.237Z,11.37
2019-03-27T12:18:37.047Z,11.51
2019-03-27T12:21:04.541Z,11.57
2019-03-27T12:23:31.835Z,11.57
2019-03-27T12:25:59.598Z,11.48
2019-03-27T12:28:26.917Z,11.29
2019-03-27T12:30:54.307Z,11.32
2019-03-27T12:33:21.811Z,11.79
2019-03-27T12:35:49.116Z,11.98
2019-03-27T12:38:16.518Z,11.83
2019-03-27T12:40:44.116Z,11.99
2019-03-27T12:43:11.799Z,11.99
2019-03-27T12:45:39.285Z,12.10
2019-03-27T12:48:06.658Z,12.20
2019-03-27T12:50:34.444Z,12.23
2019-03-27T12:53:02.062Z,12.31
2019-03-27T12:55:29.443Z,12.00
2019-03-27T12:57:56.714Z,12.14
2019-03-27T13:00:24.170Z,11.90
2019-03-27T13:03:09.862Z,11.75
2019-03-27T13:05:37.404Z,11.70
2019-03-27T13:08:04.674Z,11.85
2019-03-27T13:10:32.104Z,12.05
2019-03-27T13:12:59.727Z,11.77
2019-03-27T13:15:27.102Z,11.71
2019-03-27T13:17:54.417Z,11.54
2019-03-27T13:20:21.812Z,11.54
2019-03-27T13:22:49.179Z,11.66
2019-03-27T13:25:16.589Z,11.43
2019-03-27T13:27:47.379Z,11.40
2019-03-27T13:30:54.354Z,11.19
2019-03-27T13:33:21.619Z,11.22
2019-03-27T13:35:49.181Z,11.31
2019-03-27T13:38:16.881Z,11.17
2019-03-27T13:40:44.496Z,11.22
2019-03-27T13:43:11.871Z,11.31
2019-03-27T13:45:39.481Z,11.33
2019-03-27T13:48:06.855Z,11.41
2019-03-27T13:50:34.281Z,11.38
2019-03-27T13:53:02.053Z,11.21
2019-03-27T13:55:29.679Z,11.28
2019-03-27T13:57:57.235Z,11.24
2019-03-27T14:00:24.543Z,11.36
2019-03-27T14:02:51.916Z,11.32
2019-03-27T14:05:19.503Z,11.46
2019-03-27T14:07:47.007Z,11.34
2019-03-27T14:10:15.175Z,11.40
2019-03-27T14:12:42.574Z,11.51
2019-03-27T14:15:10.006Z,11.47
2019-03-27T14:17:37.178Z,11.48
2019-03-27T14:20:46.239Z,11.33
2019-03-27T14:23:13.783Z,11.23
2019-03-27T14:25:41.068Z,11.09
2019-03-27T14:28:08.686Z,11.05
2019-03-27T14:30:55.479Z,11.19
2019-03-27T14:33:23.211Z,11.22
2019-03-27T14:36:09.886Z,11.21
2019-03-27T14:38:37.243Z,11.05
2019-03-27T14:41:04.873Z,10.80
2019-03-27T14:43:32.830Z,10.76
2019-03-27T14:46:00.358Z,10.90
2019-03-27T14:48:27.933Z,11.04
2019-03-27T14:50:55.516Z,10.89
2019-03-27T14:53:22.938Z,10.95
2019-03-27T14:55:50.308Z,10.98
2019-03-27T14:58:17.855Z,10.91
2019-03-27T15:00:45.305Z,10.88
2019-03-27T15:03:12.570Z,10.78
2019-03-27T15:05:39.867Z,10.77
2019-03-27T15:08:07.319Z,10.73
2019-03-27T15:10:34.581Z,10.64
2019-03-27T15:13:01.854Z,10.56
2019-03-27T15:15:29.239Z,10.61
2019-03-27T15:17:56.640Z,10.50
2019-03-27T15:20:23.997Z,10.51
2019-03-27T15:22:51.314Z,10.54
2019-03-27T15:25:18.587Z,10.59
2019-03-27T15:27:46.398Z,10.77
2019-03-27T15:30:14.087Z,10.78
2019-03-27T15:32:41.760Z,10.68
2019-03-27T15:35:49.851Z,10.90
2019-03-27T15:38:17.846Z,10.81
2019-03-27T15:41:26.006Z,10.86
2019-03-27T15:43:53.557Z,10.90
2019-03-27T15:46:20.823Z,10.96
2019-03-27T15:49:07.494Z,11.08
2019-03-27T15:51:34.856Z,11.15
2019-03-27T15:54:02.109Z,11.26
2019-03-27T15:56:29.870Z,11.07
2019-03-27T15:59:16.390Z,11.02
2019-03-27T16:01:43.978Z,11.09
2019-03-27T16:04:30.865Z,11.14
2019-03-27T16:06:58.787Z,11.11
2019-03-27T16:09:27.180Z,11.06
2019-03-27T16:12:53.284Z,11.02
2019-03-27T16:15:20.761Z,10.83
2019-03-27T16:17:48.717Z,10.74
2019-03-27T16:20:16.138Z,10.67
2019-03-27T16:22:50.713Z,10.70
2019-03-27T16:25:32.490Z,10.65
2019-03-27T16:27:59.861Z,10.60
2019-03-27T16:30:55.584Z,10.62
2019-03-27T16:33:23.723Z,10.64
2019-03-27T16:35:51.618Z,10.75
2019-03-27T16:38:19.408Z,10.68
2019-03-27T16:40:48.015Z,10.65
2019-03-27T16:43:35.156Z,10.70
2019-03-27T16:46:21.773Z,10.69
2019-03-27T16:48:49.295Z,10.59
2019-03-27T16:51:16.889Z,10.63
2019-03-27T16:53:45.484Z,10.63
2019-03-27T16:56:12.906Z,10.51
2019-03-27T16:58:40.270Z,10.57
2019-03-27T17:01:27.425Z,10.55
2019-03-27T17:04:14.103Z,10.40
2019-03-27T17:06:41.485Z,10.11
2019-03-27T17:09:28.622Z,9.97
2019-03-27T17:11:56.704Z,9.86
2019-03-27T17:14:24.870Z,9.77
2019-03-27T17:17:12.450Z,9.66
2019-03-27T17:19:40.353Z,9.58
2019-03-27T17:22:18.787Z,9.47
2019-03-27T17:24:37.646Z,9.42
2019-03-27T17:27:04.942Z,9.40
2019-03-27T17:29:32.966Z,9.33
2019-03-27T17:32:00.536Z,9.38
2019-03-27T17:34:28.211Z,9.32
2019-03-27T17:36:55.828Z,9.33
2019-03-27T17:39:23.651Z,9.32
2019-03-27T17:41:50.939Z,9.34
2019-03-27T17:44:18.719Z,9.35
2019-03-27T17:46:49.918Z,9.37
2019-03-27T17:49:35.171Z,9.36
2019-03-27T17:52:02.687Z,9.34
2019-03-27T17:54:30.830Z,9.35
2019-03-27T17:57:17.835Z,9.43
2019-03-27T17:59:45.864Z,9.39
2019-03-27T18:02:13.604Z,9.44
2019-03-27T18:04:41.471Z,9.42
2019-03-27T18:07:28.584Z,9.35
2019-03-27T18:09:56.600Z,9.40
2019-03-27T18:12:24.259Z,9.44
2019-03-27T18:14:52.080Z,9.55
2019-03-27T18:17:19.764Z,9.57
2019-03-27T18:19:47.423Z,9.60
2019-03-27T18:22:15.591Z,9.67
2019-03-27T18:24:43.496Z,9.71
2019-03-27T18:27:11.319Z,9.73
2019-03-27T18:29:38.957Z,9.75
2019-03-27T18:32:07.018Z,9.77
2019-03-27T18:34:34.619Z,9.82
2019-03-27T18:37:02.239Z,9.82
2019-03-27T18:39:30.308Z,9.74
2019-03-27T18:41:58.165Z,9.79
2019-03-27T18:44:25.827Z,9.81
2019-03-27T18:46:53.542Z,9.80
2019-03-27T18:49:22.045Z,9.82
2019-03-27T18:51:50.321Z,9.89
2019-03-27T18:54:18.043Z,9.77
2019-03-27T18:56:45.664Z,9.81
2019-03-27T18:59:13.285Z,9.88
2019-03-27T19:01:40.981Z,9.95
2019-03-27T19:04:09.012Z,9.96
2019-03-27T19:06:38.016Z,9.93
2019-03-27T19:09:08.100Z,9.93
2019-03-27T19:11:55.008Z,9.93
2019-03-27T19:14:23.006Z,9.93
2019-03-27T19:16:50.454Z,9.92
2019-03-27T19:19:17.736Z,9.95
2019-03-27T19:21:45.051Z,9.85
2019-03-27T19:24:16.417Z,9.93
2019-03-27T19:26:41.972Z,9.95
2019-03-27T19:29:09.319Z,9.90
2019-03-27T19:31:36.683Z,9.89
2019-03-27T19:34:04.330Z,9.90
2019-03-27T19:36:31.846Z,9.90
2019-03-27T19:38:59.299Z,9.88
2019-03-27T19:41:26.702Z,9.91
2019-03-27T19:43:54.279Z,9.92
2019-03-27T19:46:21.862Z,9.94
2019-03-27T19:48:49.818Z,9.91
2019-03-27T19:51:17.899Z,9.90
2019-03-27T19:53:45.182Z,9.94
2019-03-27T19:56:12.465Z,9.87
2019-03-27T19:58:39.888Z,9.84
2019-03-27T20:01:07.340Z,9.85
2019-03-27T20:03:34.958Z,9.86
2019-03-27T20:06:02.612Z,9.87
2019-03-27T20:08:29.978Z,9.88
2019-03-27T20:10:57.234Z,9.89
2019-03-27T20:13:24.551Z,9.88
2019-03-27T20:15:52.108Z,9.88
2019-03-27T20:18:19.465Z,9.89
2019-03-27T20:20:47.152Z,9.83
2019-03-27T20:23:15.621Z,9.83
2019-03-27T20:25:44.153Z,9.76
2019-03-27T20:28:12.051Z,9.79
2019-03-27T20:30:39.304Z,9.84
2019-03-27T20:33:06.984Z,9.84
2019-03-27T20:35:34.528Z,9.88
2019-03-27T20:38:02.113Z,9.79
2019-03-27T20:43:18.636Z,9.72
2019-03-27T20:45:46.174Z,9.82
2019-03-27T20:48:14.185Z,9.70
2019-03-27T20:50:41.825Z,9.72
2019-03-27T20:53:09.363Z,9.73
2019-03-27T20:55:36.737Z,9.66
2019-03-27T20:58:04.302Z,9.75
2019-03-27T21:00:31.577Z,9.72
2019-03-27T21:02:58.856Z,9.70
2019-03-27T21:05:26.592Z,9.64
2019-03-27T21:07:53.969Z,9.61
2019-03-27T21:10:21.273Z,9.51
2019-03-27T21:12:48.577Z,9.33
2019-03-27T21:15:15.851Z,9.35
2019-03-27T21:17:43.404Z,9.28
2019-03-27T21:20:10.733Z,9.26
2019-03-27T21:22:38.051Z,9.21
2019-03-27T21:25:09.240Z,9.19
2019-03-27T21:27:35.229Z,9.17
2019-03-27T21:30:02.627Z,9.04
2019-03-27T21:32:29.921Z,9.00
2019-03-27T21:34:57.352Z,9.00
2019-03-27T21:37:24.707Z,8.99
2019-03-27T21:39:52.139Z,8.93
2019-03-27T21:42:19.492Z,8.82
2019-03-27T21:44:46.767Z,8.80
2019-03-27T21:47:14.339Z,8.82
2019-03-27T21:49:41.791Z,8.88
2019-03-27T21:52:09.348Z,8.88
2019-03-27T21:54:36.743Z,8.86
2019-03-27T21:57:04.450Z,8.85
2019-03-27T21:59:31.725Z,8.92
2019-03-27T22:01:58.988Z,8.85
2019-03-27T22:04:26.308Z,8.88
2019-03-27T22:06:53.738Z,8.90
2019-03-27T22:09:21.017Z,8.86
2019-03-27T22:11:48.576Z,8.82
2019-03-27T22:14:15.840Z,8.77
2019-03-27T22:16:43.345Z,8.81
2019-03-27T22:19:10.679Z,8.82
2019-03-27T22:21:38.694Z,8.80
2019-03-27T22:24:25.470Z,8.79
2019-03-27T22:26:52.731Z,8.76
2019-03-27T22:29:20.099Z,8.76
2019-03-27T22:31:47.436Z,8.76
2019-03-27T22:34:14.799Z,8.67
2019-03-27T22:36:42.095Z,8.60
2019-03-27T22:39:09.430Z,8.61
2019-03-27T22:41:36.822Z,8.63
2019-03-27T22:44:04.210Z,8.70
2019-03-27T22:46:31.694Z,8.68
2019-03-27T22:48:59.001Z,8.62
2019-03-27T22:51:26.293Z,8.66
2019-03-27T22:53:53.764Z,8.64
2019-03-27T22:56:21.229Z,8.58
2019-03-27T22:58:48.652Z,8.57
2019-03-27T23:01:16.381Z,8.62
2019-03-27T23:03:43.642Z,8.60
2019-03-27T23:06:11.302Z,8.61
2019-03-27T23:08:39.486Z,8.62
2019-03-27T23:11:06.885Z,8.62
2019-03-27T23:13:34.159Z,8.70
2019-03-27T23:16:01.488Z,8.70
2019-03-27T23:18:28.772Z,8.68
2019-03-27T23:20:56.152Z,8.57
2019-03-27T23:23:23.835Z,8.61
2019-03-27T23:26:02.553Z,8.61
2019-03-27T23:28:20.936Z,8.63
2019-03-27T23:30:48.263Z,8.68
2019-03-27T23:33:15.647Z,8.70
2019-03-27T23:35:44.095Z,8.67
2019-03-27T23:38:12.924Z,8.67
2019-03-27T23:40:40.705Z,8.65
2019-03-27T23:43:08.631Z,8.62
2019-03-27T23:45:36.003Z,8.59
2019-03-27T23:48:03.500Z,8.64
2019-03-27T23:50:31.079Z,8.69
2019-03-27T23:52:59.071Z,8.68
2019-03-27T23:55:26.341Z,8.71
2019-03-27T23:57:53.734Z,8.68
